sensor_id;sensor_type;location;lat;lon;timestamp;pressure;altitude;pressure_sealevel;temperature;humidity
40285;BME280;25997;50.214;19.354;2024-01-10T00:00:28;99418.41;;;-11.45;42.19
40285;BME280;25997;50.214;19.354;2024-01-10T00:03:30;99419.13;;;-11.33;42.08
40285;BME280;25997;50.214;19.354;2024-01-10T00:06:33;99414.94;;;-11.33;41.54
40285;BME280;25997;50.214;19.354;2024-01-10T00:09:37;99415.47;;;-11.35;41.30
40285;BME280;25997;50.214;19.354;2024-01-10T00:12:39;99413.66;;;-11.62;40.95
40285;BME280;25997;50.214;19.354;2024-01-10T00:15:45;99426.50;;;-11.73;41.11
40285;BME280;25997;50.214;19.354;2024-01-10T00:18:47;99414.56;;;-11.74;41.30
40285;BME280;25997;50.214;19.354;2024-01-10T00:21:50;99418.72;;;-11.74;41.55
40285;BME280;25997;50.214;19.354;2024-01-10T00:24:54;99415.78;;;-11.77;41.48
40285;BME280;25997;50.214;19.354;2024-01-10T00:27:57;99420.56;;;-11.73;41.63
40285;BME280;25997;50.214;19.354;2024-01-10T00:30:59;99426.91;;;-11.57;41.46
40285;BME280;25997;50.214;19.354;2024-01-10T00:34:02;99433.00;;;-11.50;41.19
40285;BME280;25997;50.214;19.354;2024-01-10T00:37:04;99431.19;;;-11.38;41.08
40285;BME280;25997;50.214;19.354;2024-01-10T00:40:09;99438.66;;;-11.32;41.02
40285;BME280;25997;50.214;19.354;2024-01-10T00:43:12;99428.94;;;-11.29;41.17
40285;BME280;25997;50.214;19.354;2024-01-10T00:46:14;99427.00;;;-11.25;41.20
40285;BME280;25997;50.214;19.354;2024-01-10T00:49:17;99421.69;;;-11.26;41.00
40285;BME280;25997;50.214;19.354;2024-01-10T00:52:19;99423.63;;;-11.31;40.95
40285;BME280;25997;50.214;19.354;2024-01-10T00:55:23;99431.47;;;-11.29;41.12
40285;BME280;25997;50.214;19.354;2024-01-10T00:58:26;99436.03;;;-11.27;41.26
40285;BME280;25997;50.214;19.354;2024-01-10T01:01:28;99441.72;;;-11.15;41.22
40285;BME280;25997;50.214;19.354;2024-01-10T01:04:31;99431.50;;;-11.10;41.10
40285;BME280;25997;50.214;19.354;2024-01-10T01:07:33;99432.47;;;-11.34;40.75
40285;BME280;25997;50.214;19.354;2024-01-10T01:10:37;99431.88;;;-11.52;41.26
40285;BME280;25997;50.214;19.354;2024-01-10T01:13:40;99434.81;;;-11.49;41.83
40285;BME280;25997;50.214;19.354;2024-01-10T01:16:42;99435.72;;;-11.35;41.89
40285;BME280;25997;50.214;19.354;2024-01-10T01:19:45;99432.28;;;-11.36;41.05
40285;BME280;25997;50.214;19.354;2024-01-10T01:22:48;99430.66;;;-11.35;41.45
40285;BME280;25997;50.214;19.354;2024-01-10T01:25:52;99428.13;;;-11.35;41.08
40285;BME280;25997;50.214;19.354;2024-01-10T01:28:55;99435.00;;;-11.60;40.36
40285;BME280;25997;50.214;19.354;2024-01-10T01:31:57;99425.91;;;-11.90;40.38
40285;BME280;25997;50.214;19.354;2024-01-10T01:34:59;99423.13;;;-12.04;40.43
40285;BME280;25997;50.214;19.354;2024-01-10T01:38:02;99417.06;;;-12.12;40.92
40285;BME280;25997;50.214;19.354;2024-01-10T01:41:06;99417.78;;;-12.13;41.32
40285;BME280;25997;50.214;19.354;2024-01-10T01:44:08;99405.53;;;-12.09;40.78
40285;BME280;25997;50.214;19.354;2024-01-10T01:47:11;99402.91;;;-12.04;41.29
40285;BME280;25997;50.214;19.354;2024-01-10T01:50:14;99400.88;;;-12.06;40.93
40285;BME280;25997;50.214;19.354;2024-01-10T01:53:17;99398.75;;;-12.03;41.15
40285;BME280;25997;50.214;19.354;2024-01-10T01:56:23;99400.91;;;-11.94;41.36
40285;BME280;25997;50.214;19.354;2024-01-10T01:59:26;99395.94;;;-11.87;41.28
40285;BME280;25997;50.214;19.354;2024-01-10T02:02:30;99387.63;;;-11.86;41.38
40285;BME280;25997;50.214;19.354;2024-01-10T02:05:33;99397.44;;;-11.82;41.19
40285;BME280;25997;50.214;19.354;2024-01-10T02:08:35;99403.72;;;-11.85;41.13
40285;BME280;25997;50.214;19.354;2024-01-10T02:11:39;99397.75;;;-11.86;41.51
40285;BME280;25997;50.214;19.354;2024-01-10T02:14:42;99395.22;;;-11.86;41.27
40285;BME280;25997;50.214;19.354;2024-01-10T02:17:45;99411.63;;;-11.77;41.55
40285;BME280;25997;50.214;19.354;2024-01-10T02:20:47;99414.78;;;-11.72;41.02
40285;BME280;25997;50.214;19.354;2024-01-10T02:23:50;99414.47;;;-11.68;41.58
40285;BME280;25997;50.214;19.354;2024-01-10T02:26:54;99405.53;;;-11.59;41.44
40285;BME280;25997;50.214;19.354;2024-01-10T02:29:58;99392.38;;;-11.57;41.23
40285;BME280;25997;50.214;19.354;2024-01-10T02:33:01;99385.56;;;-11.51;41.26
40285;BME280;25997;50.214;19.354;2024-01-10T02:36:04;99379.91;;;-11.43;41.31
40285;BME280;25997;50.214;19.354;2024-01-10T02:39:07;99374.72;;;-11.37;41.50
40285;BME280;25997;50.214;19.354;2024-01-10T02:42:11;99367.00;;;-11.31;41.69
40285;BME280;25997;50.214;19.354;2024-01-10T02:45:13;99374.50;;;-11.26;41.68
40285;BME280;25997;50.214;19.354;2024-01-10T02:48:16;99373.78;;;-11.25;41.52
40285;BME280;25997;50.214;19.354;2024-01-10T02:51:18;99371.25;;;-11.25;41.20
40285;BME280;25997;50.214;19.354;2024-01-10T02:54:21;99374.13;;;-11.22;41.58
40285;BME280;25997;50.214;19.354;2024-01-10T02:57:25;99361.88;;;-11.19;41.55
40285;BME280;25997;50.214;19.354;2024-01-10T03:00:27;99369.66;;;-11.17;41.24
40285;BME280;25997;50.214;19.354;2024-01-10T03:03:30;99361.38;;;-11.16;41.32
40285;BME280;25997;50.214;19.354;2024-01-10T03:06:32;99364.91;;;-11.21;40.82
40285;BME280;25997;50.214;19.354;2024-01-10T03:09:35;99355.66;;;-11.28;41.19
40285;BME280;25997;50.214;19.354;2024-01-10T03:12:38;99354.88;;;-11.34;41.11
40285;BME280;25997;50.214;19.354;2024-01-10T03:15:41;99350.34;;;-11.49;40.69
40285;BME280;25997;50.214;19.354;2024-01-10T03:18:44;99348.63;;;-11.68;41.03
40285;BME280;25997;50.214;19.354;2024-01-10T03:21:46;99351.69;;;-11.83;41.45
40285;BME280;25997;50.214;19.354;2024-01-10T03:24:49;99352.00;;;-11.87;41.71
40285;BME280;25997;50.214;19.354;2024-01-10T03:27:53;99350.88;;;-11.89;41.79
40285;BME280;25997;50.214;19.354;2024-01-10T03:30:55;99351.00;;;-11.82;41.92
40285;BME280;25997;50.214;19.354;2024-01-10T03:33:58;99356.22;;;-11.68;41.62
40285;BME280;25997;50.214;19.354;2024-01-10T03:37:00;99349.84;;;-11.59;41.39
40285;BME280;25997;50.214;19.354;2024-01-10T03:40:03;99350.97;;;-11.70;40.46
40285;BME280;25997;50.214;19.354;2024-01-10T03:43:07;99353.53;;;-12.07;39.45
40285;BME280;25997;50.214;19.354;2024-01-10T03:46:11;99348.34;;;-12.27;40.12
40285;BME280;25997;50.214;19.354;2024-01-10T03:49:14;99357.13;;;-12.31;40.87
40285;BME280;25997;50.214;19.354;2024-01-10T03:52:16;99362.28;;;-12.36;40.42
40285;BME280;25997;50.214;19.354;2024-01-10T03:55:20;99358.34;;;-12.47;40.27
40285;BME280;25997;50.214;19.354;2024-01-10T03:58:24;99356.06;;;-12.63;40.19
40285;BME280;25997;50.214;19.354;2024-01-10T04:01:27;99354.19;;;-12.77;40.29
40285;BME280;25997;50.214;19.354;2024-01-10T04:04:30;99347.28;;;-12.91;40.00
40285;BME280;25997;50.214;19.354;2024-01-10T04:07:32;99347.25;;;-13.03;40.31
40285;BME280;25997;50.214;19.354;2024-01-10T04:10:35;99336.50;;;-13.08;40.17
40285;BME280;25997;50.214;19.354;2024-01-10T04:13:39;99339.03;;;-13.08;40.50
40285;BME280;25997;50.214;19.354;2024-01-10T04:16:42;99333.78;;;-13.09;41.15
40285;BME280;25997;50.214;19.354;2024-01-10T04:19:44;99338.97;;;-13.02;40.94
40285;BME280;25997;50.214;19.354;2024-01-10T04:22:47;99343.00;;;-12.97;40.91
40285;BME280;25997;50.214;19.354;2024-01-10T04:25:49;99340.91;;;-12.94;40.86
40285;BME280;25997;50.214;19.354;2024-01-10T04:28:53;99350.72;;;-12.90;40.64
40285;BME280;25997;50.214;19.354;2024-01-10T04:31:56;99341.84;;;-12.94;40.75
40285;BME280;25997;50.214;19.354;2024-01-10T04:34:58;99351.03;;;-12.94;40.65
40285;BME280;25997;50.214;19.354;2024-01-10T04:38:01;99350.31;;;-12.93;40.77
40285;BME280;25997;50.214;19.354;2024-01-10T04:41:03;99345.25;;;-12.93;40.13
40285;BME280;25997;50.214;19.354;2024-01-10T04:44:07;99343.16;;;-12.90;40.85
40285;BME280;25997;50.214;19.354;2024-01-10T04:47:10;99348.13;;;-12.84;41.04
40285;BME280;25997;50.214;19.354;2024-01-10T04:50:12;99348.22;;;-12.77;40.88
40285;BME280;25997;50.214;19.354;2024-01-10T04:53:15;99342.50;;;-12.64;41.14
40285;BME280;25997;50.214;19.354;2024-01-10T04:56:17;99341.13;;;-12.49;41.39
40285;BME280;25997;50.214;19.354;2024-01-10T04:59:21;99338.91;;;-12.41;41.43
40285;BME280;25997;50.214;19.354;2024-01-10T05:02:24;99331.75;;;-12.25;41.34
40285;BME280;25997;50.214;19.354;2024-01-10T05:05:26;99338.16;;;-12.09;41.37
40285;BME280;25997;50.214;19.354;2024-01-10T05:08:29;99342.59;;;-12.01;41.15
40285;BME280;25997;50.214;19.354;2024-01-10T05:11:32;99350.38;;;-11.99;41.62
40285;BME280;25997;50.214;19.354;2024-01-10T05:14:38;99350.97;;;-11.95;41.03
40285;BME280;25997;50.214;19.354;2024-01-10T05:17:40;99340.25;;;-11.87;41.61
40285;BME280;25997;50.214;19.354;2024-01-10T05:20:43;99341.16;;;-11.74;41.56
40285;BME280;25997;50.214;19.354;2024-01-10T05:23:46;99348.22;;;-11.59;41.45
40285;BME280;25997;50.214;19.354;2024-01-10T05:26:48;99345.06;;;-11.51;41.37
40285;BME280;25997;50.214;19.354;2024-01-10T05:29:53;99339.56;;;-11.41;41.33
40285;BME280;25997;50.214;19.354;2024-01-10T05:32:56;99337.97;;;-11.41;41.49
40285;BME280;25997;50.214;19.354;2024-01-10T05:35:59;99338.03;;;-11.33;42.15
40285;BME280;25997;50.214;19.354;2024-01-10T05:39:01;99328.53;;;-11.22;41.77
40285;BME280;25997;50.214;19.354;2024-01-10T05:42:04;99335.69;;;-11.12;41.76
40285;BME280;25997;50.214;19.354;2024-01-10T05:45:09;99327.75;;;-11.08;41.71
40285;BME280;25997;50.214;19.354;2024-01-10T05:48:11;99333.25;;;-11.05;41.74
40285;BME280;25997;50.214;19.354;2024-01-10T05:51:14;99331.72;;;-11.10;41.56
40285;BME280;25997;50.214;19.354;2024-01-10T05:54:16;99344.47;;;-11.23;41.01
40285;BME280;25997;50.214;19.354;2024-01-10T05:57:19;99344.03;;;-11.46;40.55
40285;BME280;25997;50.214;19.354;2024-01-10T06:00:24;99353.38;;;-11.64;40.30
40285;BME280;25997;50.214;19.354;2024-01-10T06:03:27;99355.94;;;-12.02;39.27
40285;BME280;25997;50.214;19.354;2024-01-10T06:06:29;99359.78;;;-12.36;39.26
40285;BME280;25997;50.214;19.354;2024-01-10T06:09:33;99362.97;;;-12.62;39.90
40285;BME280;25997;50.214;19.354;2024-01-10T06:12:35;99367.94;;;-12.75;40.29
40285;BME280;25997;50.214;19.354;2024-01-10T06:15:40;99359.88;;;-12.72;40.95
40285;BME280;25997;50.214;19.354;2024-01-10T06:18:43;99362.03;;;-12.63;40.78
40285;BME280;25997;50.214;19.354;2024-01-10T06:21:45;99367.09;;;-12.63;40.84
40285;BME280;25997;50.214;19.354;2024-01-10T06:24:48;99378.28;;;-12.73;39.98
40285;BME280;25997;50.214;19.354;2024-01-10T06:27:50;99364.41;;;-12.82;40.09
40285;BME280;25997;50.214;19.354;2024-01-10T06:30:54;99369.38;;;-12.95;40.34
40285;BME280;25997;50.214;19.354;2024-01-10T06:33:56;99367.97;;;-12.93;40.72
40285;BME280;25997;50.214;19.354;2024-01-10T06:36:59;99369.81;;;-12.92;40.13
40285;BME280;25997;50.214;19.354;2024-01-10T06:40:02;99369.81;;;-12.92;41.03
40285;BME280;25997;50.214;19.354;2024-01-10T06:43:06;99358.09;;;-12.92;40.53
40285;BME280;25997;50.214;19.354;2024-01-10T06:46:11;99356.25;;;-12.62;42.11
40285;BME280;25997;50.214;19.354;2024-01-10T06:49:13;99353.28;;;-12.22;42.54
40285;BME280;25997;50.214;19.354;2024-01-10T06:52:16;99349.69;;;-11.98;41.89
40285;BME280;25997;50.214;19.354;2024-01-10T06:55:18;99348.97;;;-11.85;41.92
40285;BME280;25997;50.214;19.354;2024-01-10T06:58:23;99350.47;;;-11.67;41.74
40285;BME280;25997;50.214;19.354;2024-01-10T07:01:27;99352.22;;;-11.73;41.00
40285;BME280;25997;50.214;19.354;2024-01-10T07:04:30;99350.56;;;-11.73;41.13
40285;BME280;25997;50.214;19.354;2024-01-10T07:07:33;99352.59;;;-11.70;41.11
40285;BME280;25997;50.214;19.354;2024-01-10T07:10:36;99352.78;;;-11.69;41.05
40285;BME280;25997;50.214;19.354;2024-01-10T07:13:40;99346.09;;;-11.68;40.75
40285;BME280;25997;50.214;19.354;2024-01-10T07:16:44;99344.59;;;-11.73;40.96
40285;BME280;25997;50.214;19.354;2024-01-10T07:19:48;99342.16;;;-11.79;41.28
40285;BME280;25997;50.214;19.354;2024-01-10T07:22:51;99336.56;;;-11.64;42.15
40285;BME280;25997;50.214;19.354;2024-01-10T07:25:53;99343.38;;;-11.25;42.59
40285;BME280;25997;50.214;19.354;2024-01-10T07:28:56;99330.63;;;-10.93;42.08
40285;BME280;25997;50.214;19.354;2024-01-10T07:32:00;99331.72;;;-10.78;41.75
40285;BME280;25997;50.214;19.354;2024-01-10T07:35:02;99330.97;;;-10.58;42.23
40285;BME280;25997;50.214;19.354;2024-01-10T07:38:05;99338.75;;;-10.36;42.18
40285;BME280;25997;50.214;19.354;2024-01-10T07:41:08;99339.25;;;-10.19;41.76
40285;BME280;25997;50.214;19.354;2024-01-10T07:44:12;99340.91;;;-10.13;41.31
40285;BME280;25997;50.214;19.354;2024-01-10T07:47:16;99349.59;;;-10.18;41.24
40285;BME280;25997;50.214;19.354;2024-01-10T07:50:19;99346.16;;;-10.18;41.17
40285;BME280;25997;50.214;19.354;2024-01-10T07:53:22;99338.03;;;-10.09;41.21
40285;BME280;25997;50.214;19.354;2024-01-10T07:56:28;99336.38;;;-10.15;41.66
40285;BME280;25997;50.214;19.354;2024-01-10T07:59:31;99346.22;;;-10.04;41.58
40285;BME280;25997;50.214;19.354;2024-01-10T08:02:34;99339.75;;;-9.95;40.64
40285;BME280;25997;50.214;19.354;2024-01-10T08:05:37;99342.22;;;-9.82;40.93
40285;BME280;25997;50.214;19.354;2024-01-10T08:08:39;99346.59;;;-9.74;40.34
40285;BME280;25997;50.214;19.354;2024-01-10T08:11:42;99352.16;;;-10.18;38.74
40285;BME280;25997;50.214;19.354;2024-01-10T08:14:44;99354.06;;;-10.49;39.04
40285;BME280;25997;50.214;19.354;2024-01-10T08:17:52;99346.84;;;-10.66;39.42
40285;BME280;25997;50.214;19.354;2024-01-10T08:20:54;99357.00;;;-10.85;39.58
40285;BME280;25997;50.214;19.354;2024-01-10T08:23:57;99351.78;;;-10.80;40.68
40285;BME280;25997;50.214;19.354;2024-01-10T08:26:59;99340.34;;;-10.64;40.78
40285;BME280;25997;50.214;19.354;2024-01-10T08:30:02;99338.28;;;-10.53;41.05
40285;BME280;25997;50.214;19.354;2024-01-10T08:33:07;99339.00;;;-10.28;41.50
40285;BME280;25997;50.214;19.354;2024-01-10T08:36:09;99340.53;;;-9.89;41.89
40285;BME280;25997;50.214;19.354;2024-01-10T08:39:13;99343.88;;;-9.42;41.78
40285;BME280;25997;50.214;19.354;2024-01-10T08:42:16;99341.00;;;-9.24;41.56
40285;BME280;25997;50.214;19.354;2024-01-10T08:45:18;99344.72;;;-9.01;41.79
40285;BME280;25997;50.214;19.354;2024-01-10T08:48:22;99346.59;;;-8.72;41.53
40285;BME280;25997;50.214;19.354;2024-01-10T08:51:25;99355.34;;;-8.49;41.86
40285;BME280;25997;50.214;19.354;2024-01-10T08:54:28;99355.72;;;-8.46;40.48
40285;BME280;25997;50.214;19.354;2024-01-10T08:57:30;99335.53;;;-8.37;40.79
40285;BME280;25997;50.214;19.354;2024-01-10T09:00:33;99337.88;;;-8.17;40.85
40285;BME280;25997;50.214;19.354;2024-01-10T09:03:37;99335.69;;;-8.00;41.20
40285;BME280;25997;50.214;19.354;2024-01-10T09:06:40;99334.78;;;-7.94;41.86
40285;BME280;25997;50.214;19.354;2024-01-10T09:09:42;99336.88;;;-7.69;42.21
40285;BME280;25997;50.214;19.354;2024-01-10T09:12:45;99331.56;;;-7.49;41.93
40285;BME280;25997;50.214;19.354;2024-01-10T09:15:47;99334.38;;;-7.25;42.06
40285;BME280;25997;50.214;19.354;2024-01-10T09:18:51;99337.22;;;-7.15;40.54
40285;BME280;25997;50.214;19.354;2024-01-10T09:21:57;99334.13;;;-7.12;40.78
40285;BME280;25997;50.214;19.354;2024-01-10T09:25:00;99330.63;;;-7.06;40.29
40285;BME280;25997;50.214;19.354;2024-01-10T09:28:05;99332.25;;;-7.06;40.54
40285;BME280;25997;50.214;19.354;2024-01-10T09:31:08;99330.38;;;-6.93;40.73
40285;BME280;25997;50.214;19.354;2024-01-10T09:34:12;99329.56;;;-6.78;40.55
40285;BME280;25997;50.214;19.354;2024-01-10T09:37:15;99338.75;;;-6.64;40.66
40285;BME280;25997;50.214;19.354;2024-01-10T09:40:17;99329.75;;;-6.54;40.54
40285;BME280;25997;50.214;19.354;2024-01-10T09:43:22;99325.94;;;-6.35;40.79
40285;BME280;25997;50.214;19.354;2024-01-10T09:46:24;99311.13;;;-6.07;40.69
40285;BME280;25997;50.214;19.354;2024-01-10T09:49:32;99313.63;;;-5.85;40.47
40285;BME280;25997;50.214;19.354;2024-01-10T09:52:41;99299.13;;;-5.62;40.79
40285;BME280;25997;50.214;19.354;2024-01-10T09:55:44;99300.75;;;-5.31;40.98
40285;BME280;25997;50.214;19.354;2024-01-10T09:58:48;99298.13;;;-5.00;40.28
40285;BME280;25997;50.214;19.354;2024-01-10T10:01:52;99295.25;;;-4.87;40.18
40285;BME280;25997;50.214;19.354;2024-01-10T10:05:02;99286.53;;;-4.81;40.90
40285;BME280;25997;50.214;19.354;2024-01-10T10:08:07;99289.88;;;-4.49;41.54
40285;BME280;25997;50.214;19.354;2024-01-10T10:11:12;99283.59;;;-4.03;41.51
40285;BME280;25997;50.214;19.354;2024-01-10T10:14:16;99284.00;;;-3.48;41.50
40285;BME280;25997;50.214;19.354;2024-01-10T10:17:19;99285.56;;;-3.16;40.88
40285;BME280;25997;50.214;19.354;2024-01-10T10:20:23;99288.22;;;-2.89;40.78
40285;BME280;25997;50.214;19.354;2024-01-10T10:23:26;99276.53;;;-2.51;40.74
40285;BME280;25997;50.214;19.354;2024-01-10T10:26:32;99289.78;;;-2.02;40.89
40285;BME280;25997;50.214;19.354;2024-01-10T10:29:35;99289.44;;;-1.61;40.12
40285;BME280;25997;50.214;19.354;2024-01-10T10:32:38;99283.16;;;-1.27;40.24
40285;BME280;25997;50.214;19.354;2024-01-10T10:35:44;99289.53;;;-0.95;40.27
40285;BME280;25997;50.214;19.354;2024-01-10T10:38:47;99292.03;;;-0.68;39.98
40285;BME280;25997;50.214;19.354;2024-01-10T10:41:50;99275.38;;;-0.43;39.98
40285;BME280;25997;50.214;19.354;2024-01-10T10:44:57;99280.69;;;-0.02;39.92
40285;BME280;25997;50.214;19.354;2024-01-10T10:48:07;99284.59;;;0.33;39.55
40285;BME280;25997;50.214;19.354;2024-01-10T10:51:21;99276.38;;;0.57;39.42
40285;BME280;25997;50.214;19.354;2024-01-10T10:54:28;99274.16;;;0.72;39.74
40285;BME280;25997;50.214;19.354;2024-01-10T10:57:32;99272.84;;;0.97;39.66
40285;BME280;25997;50.214;19.354;2024-01-10T11:00:35;99271.63;;;1.23;39.54
40285;BME280;25997;50.214;19.354;2024-01-10T11:03:39;99268.72;;;1.41;39.44
40285;BME280;25997;50.214;19.354;2024-01-10T11:06:44;99267.63;;;1.59;39.31
40285;BME280;25997;50.214;19.354;2024-01-10T11:09:49;99263.19;;;1.68;38.99
40285;BME280;25997;50.214;19.354;2024-01-10T11:13:17;99255.59;;;2.03;38.38
40285;BME280;25997;50.214;19.354;2024-01-10T11:16:38;99243.53;;;2.25;38.64
40285;BME280;25997;50.214;19.354;2024-01-10T11:20:15;99255.63;;;2.24;37.35
40285;BME280;25997;50.214;19.354;2024-01-10T11:23:38;99249.38;;;2.44;38.12
40285;BME280;25997;50.214;19.354;2024-01-10T11:26:42;99241.47;;;2.42;35.71
40285;BME280;25997;50.214;19.354;2024-01-10T11:29:47;99243.19;;;2.42;39.06
40285;BME280;25997;50.214;19.354;2024-01-10T11:32:49;99244.22;;;2.55;38.27
40285;BME280;25997;50.214;19.354;2024-01-10T11:36:10;99244.38;;;2.80;37.61
40285;BME280;25997;50.214;19.354;2024-01-10T11:39:16;99243.53;;;3.03;38.07
40285;BME280;25997;50.214;19.354;2024-01-10T11:42:22;99252.09;;;3.13;37.64
40285;BME280;25997;50.214;19.354;2024-01-10T11:45:36;99242.84;;;3.52;36.86
40285;BME280;25997;50.214;19.354;2024-01-10T11:48:39;99251.78;;;3.55;37.03
40285;BME280;25997;50.214;19.354;2024-01-10T11:51:43;99239.03;;;3.47;36.78
40285;BME280;25997;50.214;19.354;2024-01-10T11:54:47;99248.03;;;3.52;37.19
40285;BME280;25997;50.214;19.354;2024-01-10T11:58:07;99238.63;;;3.77;36.86
40285;BME280;25997;50.214;19.354;2024-01-10T12:01:10;99227.94;;;4.08;37.01
40285;BME280;25997;50.214;19.354;2024-01-10T12:04:13;99229.19;;;4.02;36.87
40285;BME280;25997;50.214;19.354;2024-01-10T12:07:17;99236.22;;;3.91;36.92
40285;BME280;25997;50.214;19.354;2024-01-10T12:10:21;99233.88;;;3.83;36.94
40285;BME280;25997;50.214;19.354;2024-01-10T12:13:24;99238.28;;;3.84;37.03
40285;BME280;25997;50.214;19.354;2024-01-10T12:16:27;99234.84;;;3.96;36.90
40285;BME280;25997;50.214;19.354;2024-01-10T12:19:30;99237.66;;;4.11;36.61
40285;BME280;25997;50.214;19.354;2024-01-10T12:22:32;99241.34;;;4.39;36.16
40285;BME280;25997;50.214;19.354;2024-01-10T12:25:37;99238.56;;;4.49;35.51
40285;BME280;25997;50.214;19.354;2024-01-10T12:28:40;99235.31;;;4.65;36.23
40285;BME280;25997;50.214;19.354;2024-01-10T12:31:55;99229.75;;;5.10;35.62
40285;BME280;25997;50.214;19.354;2024-01-10T12:35:01;99219.53;;;5.39;35.34
40285;BME280;25997;50.214;19.354;2024-01-10T12:38:05;99215.88;;;5.76;35.14
40285;BME280;25997;50.214;19.354;2024-01-10T12:41:09;99216.75;;;5.90;34.32
40285;BME280;25997;50.214;19.354;2024-01-10T12:44:12;99205.66;;;6.07;34.04
40285;BME280;25997;50.214;19.354;2024-01-10T12:47:18;99189.72;;;6.15;33.60
40285;BME280;25997;50.214;19.354;2024-01-10T12:50:21;99188.53;;;6.38;33.24
40285;BME280;25997;50.214;19.354;2024-01-10T12:53:26;99180.91;;;6.41;32.84
40285;BME280;25997;50.214;19.354;2024-01-10T12:56:30;99181.38;;;5.93;33.21
40285;BME280;25997;50.214;19.354;2024-01-10T12:59:33;99190.41;;;5.85;32.79
40285;BME280;25997;50.214;19.354;2024-01-10T13:02:36;99193.22;;;5.88;32.89
40285;BME280;25997;50.214;19.354;2024-01-10T13:05:39;99189.94;;;6.05;32.70
40285;BME280;25997;50.214;19.354;2024-01-10T13:08:42;99179.50;;;6.05;31.96
40285;BME280;25997;50.214;19.354;2024-01-10T13:11:46;99176.13;;;6.06;32.61
40285;BME280;25997;50.214;19.354;2024-01-10T13:14:48;99182.59;;;6.13;32.34
40285;BME280;25997;50.214;19.354;2024-01-10T13:17:51;99175.19;;;6.33;32.51
40285;BME280;25997;50.214;19.354;2024-01-10T13:20:53;99179.03;;;6.68;32.00
40285;BME280;25997;50.214;19.354;2024-01-10T13:23:56;99177.31;;;6.83;32.23
40285;BME280;25997;50.214;19.354;2024-01-10T13:27:00;99177.06;;;6.93;32.15
40285;BME280;25997;50.214;19.354;2024-01-10T13:30:03;99170.75;;;6.75;32.75
40285;BME280;25997;50.214;19.354;2024-01-10T13:33:06;99185.63;;;6.90;32.66
40285;BME280;25997;50.214;19.354;2024-01-10T13:36:10;99180.09;;;6.71;32.11
40285;BME280;25997;50.214;19.354;2024-01-10T13:39:12;99183.16;;;6.50;32.47
40285;BME280;25997;50.214;19.354;2024-01-10T13:42:17;99179.63;;;6.34;32.98
40285;BME280;25997;50.214;19.354;2024-01-10T13:45:20;99173.19;;;6.72;33.28
40285;BME280;25997;50.214;19.354;2024-01-10T13:48:22;99180.06;;;7.30;32.33
40285;BME280;25997;50.214;19.354;2024-01-10T13:51:25;99171.44;;;7.16;32.26
40285;BME280;25997;50.214;19.354;2024-01-10T13:54:27;99174.31;;;7.35;32.11
40285;BME280;25997;50.214;19.354;2024-01-10T13:57:32;99171.56;;;7.48;31.80
40285;BME280;25997;50.214;19.354;2024-01-10T14:00:34;99171.50;;;7.94;31.07
40285;BME280;25997;50.214;19.354;2024-01-10T14:03:38;99168.41;;;8.01;30.18
40285;BME280;25997;50.214;19.354;2024-01-10T14:06:41;99160.63;;;7.70;30.06
40285;BME280;25997;50.214;19.354;2024-01-10T14:09:43;99159.34;;;7.94;30.10
40285;BME280;25997;50.214;19.354;2024-01-10T14:12:48;99158.13;;;8.20;29.40
40285;BME280;25997;50.214;19.354;2024-01-10T14:15:51;99159.31;;;7.47;28.73
40285;BME280;25997;50.214;19.354;2024-01-10T14:18:55;99155.81;;;7.01;29.43
40285;BME280;25997;50.214;19.354;2024-01-10T14:21:57;99155.47;;;6.95;29.40
40285;BME280;25997;50.214;19.354;2024-01-10T14:25:00;99156.25;;;6.94;29.46
40285;BME280;25997;50.214;19.354;2024-01-10T14:28:04;99157.44;;;6.85;29.16
40285;BME280;25997;50.214;19.354;2024-01-10T14:31:07;99161.56;;;6.67;29.14
40285;BME280;25997;50.214;19.354;2024-01-10T14:34:11;99150.78;;;6.46;29.02
40285;BME280;25997;50.214;19.354;2024-01-10T14:37:13;99151.13;;;6.10;29.23
40285;BME280;25997;50.214;19.354;2024-01-10T14:40:16;99155.16;;;5.23;29.76
40285;BME280;25997;50.214;19.354;2024-01-10T14:43:19;99158.00;;;4.25;30.55
40285;BME280;25997;50.214;19.354;2024-01-10T14:46:22;99150.25;;;3.64;31.05
40285;BME280;25997;50.214;19.354;2024-01-10T14:49:26;99150.28;;;3.04;31.43
40285;BME280;25997;50.214;19.354;2024-01-10T14:52:29;99149.88;;;2.42;31.45
40285;BME280;25997;50.214;19.354;2024-01-10T14:55:31;99152.09;;;1.92;32.26
40285;BME280;25997;50.214;19.354;2024-01-10T14:58:35;99151.09;;;1.47;32.59
40285;BME280;25997;50.214;19.354;2024-01-10T15:01:43;99151.19;;;1.05;32.91
40285;BME280;25997;50.214;19.354;2024-01-10T15:04:46;99141.59;;;0.73;32.99
40285;BME280;25997;50.214;19.354;2024-01-10T15:07:48;99144.09;;;0.41;33.17
40285;BME280;25997;50.214;19.354;2024-01-10T15:10:51;99145.81;;;0.10;33.36
40285;BME280;25997;50.214;19.354;2024-01-10T15:13:55;99153.16;;;-0.14;33.60
40285;BME280;25997;50.214;19.354;2024-01-10T15:16:57;99155.59;;;-0.36;34.18
40285;BME280;25997;50.214;19.354;2024-01-10T15:20:01;99154.78;;;-0.45;34.33
40285;BME280;25997;50.214;19.354;2024-01-10T15:23:04;99144.72;;;-0.42;34.45
40285;BME280;25997;50.214;19.354;2024-01-10T15:26:06;99145.88;;;-0.49;34.44
40285;BME280;25997;50.214;19.354;2024-01-10T15:29:11;99140.31;;;-0.63;34.95
40285;BME280;25997;50.214;19.354;2024-01-10T15:32:13;99143.34;;;-0.77;35.34
40285;BME280;25997;50.214;19.354;2024-01-10T15:35:17;99139.84;;;-0.88;35.50
40285;BME280;25997;50.214;19.354;2024-01-10T15:38:19;99138.53;;;-0.93;35.43
40285;BME280;25997;50.214;19.354;2024-01-10T15:41:22;99146.00;;;-0.96;35.82
40285;BME280;25997;50.214;19.354;2024-01-10T15:44:26;99143.91;;;-1.00;35.63
40285;BME280;25997;50.214;19.354;2024-01-10T15:47:29;99135.00;;;-1.14;36.13
40285;BME280;25997;50.214;19.354;2024-01-10T15:50:31;99129.25;;;-1.30;36.20
40285;BME280;25997;50.214;19.354;2024-01-10T15:53:34;99126.06;;;-1.46;36.39
40285;BME280;25997;50.214;19.354;2024-01-10T15:56:37;99124.19;;;-1.57;36.67